Accueil
METAR-TAF:

METAR-TAF

Aéroports :

Aéroport international de Paphos

Paphos, Chypre

latitude: 34-43N, longitude: 032-29E, altitude: 11 m

Observation

Le bulletin a été fait il y a 36 minutes, à 00:00 UTC
Vent 8 kt de nord/nord-est
Température 8°C
Humidité 76%
Pression 1029 hPa
Visibilité 10 km ou plus
Nuages épars à une hauteur de 3000 ft

METAR: LCPH 260000Z 03008KT 9999 SCT030 08/04 Q1029

Heure: 02:36 (00:36 UTC)

Prévision

Le bulletin a été fait il y a 1 heure et 6 minutes, à 23:30 UTC
Prévision valable du 26 à 00 UTC au 26 à 24 UTC
Vent 7 kt de nord/nord-est
Visibilité 10 km ou plus
pas de nuages en-dessous de 1500 mètres et pas de cumulonimbus.
Evoluant progressivement
du 26 à 08 UTC au 26 à 11 UTC
Vent 11 kt de ouest
Evoluant progressivement
du 26 à 16 UTC au 26 à 18 UTC
Vent 7 kt de nord/nord-est

TAF: LCPH 252330Z 2600/2624 03007KT CAVOK BECMG 2608/2611 27011KT BECMG 2616/2618 02007KT

Observations et prévisions météorologiques de plus de 4000 aéroports (messages METAR et TAF).

Les stations disponibles sont représentées par des disques jaunes et rouges sur la carte.

Passer la souris dessus pour voir le nom de la station.

Cliquer dessus pour voir les observations et prévisions météorologiques.

Pour changer de carte: cliquez sur les boutons verts avec une croix noire pour zoomer, sur le bouton vert avec un tiret pour effectuer un zoom arrière, ou sur les flèches vertes pour les cartes adjacentes.


METAR-TAF: